createdAt,value
2017-09-17T00:00:52.042Z,17.15
2017-09-17T00:02:02.422Z,17.12
2017-09-17T00:03:30.791Z,17.17
2017-09-17T00:04:41.406Z,17.1
2017-09-17T00:05:51.776Z,17.18
2017-09-17T00:07:01.822Z,17.17
2017-09-17T00:08:12.327Z,17.1
2017-09-17T00:09:22.688Z,17.1
2017-09-17T00:10:33.038Z,17.12
2017-09-17T00:11:44.584Z,17.15
2017-09-17T00:12:54.920Z,17.18
2017-09-17T00:14:06.728Z,17.07
2017-09-17T00:15:16.754Z,17.13
2017-09-17T00:16:27.099Z,17.13
2017-09-17T00:17:37.132Z,17.02
2017-09-17T00:18:47.180Z,17.09
2017-09-17T00:19:57.252Z,17.06
2017-09-17T00:21:07.608Z,17.07
2017-09-17T00:22:17.938Z,17.12
2017-09-17T00:23:27.956Z,17.13
2017-09-17T00:24:37.659Z,17.1
2017-09-17T00:25:47.747Z,17.25
2017-09-17T00:26:58.080Z,17.2
2017-09-17T00:28:08.107Z,17.13
2017-09-17T00:29:18.119Z,17.13
2017-09-17T00:30:28.474Z,17.13
2017-09-17T00:31:38.484Z,17.13
2017-09-17T00:32:48.826Z,17.12
2017-09-17T00:33:59.177Z,17.13
2017-09-17T00:35:08.900Z,17.09
2017-09-17T00:36:19.236Z,17.17
2017-09-17T00:37:29.328Z,17.09
2017-09-17T00:38:39.669Z,17.1
2017-09-17T00:39:49.915Z,17.09
2017-09-17T00:41:00.263Z,17.09
2017-09-17T00:42:10.327Z,17.06
2017-09-17T00:43:20.663Z,17.05
2017-09-17T00:44:31.025Z,16.97
2017-09-17T00:45:41.391Z,17.05
2017-09-17T00:46:51.082Z,17.06
2017-09-17T00:48:00.790Z,17.05
2017-09-17T00:49:11.481Z,17.09
2017-09-17T00:50:21.838Z,17.1
2017-09-17T00:51:32.175Z,17.15
2017-09-17T00:52:42.520Z,17.05
2017-09-17T00:53:52.877Z,17.02
2017-09-17T00:55:02.954Z,17
2017-09-17T00:56:13.296Z,17.09
2017-09-17T00:57:23.647Z,17.02
2017-09-17T00:58:34.006Z,17.06
2017-09-17T00:59:44.341Z,17.09
2017-09-17T01:00:54.687Z,16.88
2017-09-17T01:02:05.043Z,17.03
2017-09-17T01:03:15.384Z,17.05
2017-09-17T01:04:25.724Z,17.13
2017-09-17T01:05:35.746Z,16.99
2017-09-17T01:06:45.830Z,16.99
2017-09-17T01:07:55.859Z,16.91
2017-09-17T01:09:06.206Z,17.1
2017-09-17T01:10:16.565Z,17.02
2017-09-17T01:11:26.595Z,17.1
2017-09-17T01:12:37.002Z,16.92
2017-09-17T01:13:46.382Z,16.9
2017-09-17T01:14:56.715Z,16.94
2017-09-17T01:16:06.745Z,17
2017-09-17T01:17:17.089Z,16.97
2017-09-17T01:18:27.421Z,16.99
2017-09-17T01:19:37.762Z,16.94
2017-09-17T01:20:47.837Z,16.99
2017-09-17T01:21:58.195Z,16.99
2017-09-17T01:23:07.912Z,16.97
2017-09-17T01:24:18.252Z,16.9
2017-09-17T01:25:28.287Z,16.88
2017-09-17T01:26:38.381Z,16.87
2017-09-17T01:27:48.742Z,16.91
2017-09-17T01:28:58.451Z,16.8
2017-09-17T01:30:08.476Z,16.84
2017-09-17T01:31:18.810Z,16.87
2017-09-17T01:32:28.890Z,16.76
2017-09-17T01:33:39.256Z,16.69
2017-09-17T01:34:49.593Z,16.72
2017-09-17T01:35:59.931Z,16.65
2017-09-17T01:37:10.283Z,16.67
2017-09-17T01:38:20.629Z,16.73
2017-09-17T01:39:30.972Z,16.69
2017-09-17T01:40:41.352Z,16.73
2017-09-17T01:41:51.685Z,16.67
2017-09-17T01:43:03.231Z,16.67
2017-09-17T01:44:13.628Z,16.7
2017-09-17T01:45:23.976Z,16.73
2017-09-17T01:46:34.011Z,16.82
2017-09-17T01:47:44.038Z,16.84
2017-09-17T01:48:53.737Z,16.81
2017-09-17T01:50:04.113Z,16.81
2017-09-17T01:51:14.460Z,16.8
2017-09-17T01:52:24.475Z,16.81
2017-09-17T01:53:34.500Z,16.92
2017-09-17T01:54:44.834Z,16.91
2017-09-17T01:55:55.177Z,16.88
2017-09-17T01:57:05.508Z,16.88
2017-09-17T01:58:15.837Z,16.92
2017-09-17T01:59:25.856Z,16.9
2017-09-17T02:00:36.183Z,16.88
2017-09-17T02:01:46.219Z,16.87
2017-09-17T02:02:56.551Z,16.82
2017-09-17T02:04:06.902Z,16.9
2017-09-17T02:05:17.247Z,16.85
2017-09-17T02:06:27.613Z,16.87
2017-09-17T02:07:37.973Z,16.87
2017-09-17T02:08:48.390Z,16.87
2017-09-17T02:09:58.419Z,16.81
2017-09-17T02:11:08.765Z,16.8
2017-09-17T02:12:19.130Z,16.73
2017-09-17T02:13:29.470Z,16.67
2017-09-17T02:14:39.812Z,16.74
2017-09-17T02:15:50.152Z,16.65
2017-09-17T02:17:00.517Z,16.63
2017-09-17T02:18:10.863Z,16.62
2017-09-17T02:19:20.892Z,16.55
2017-09-17T02:20:31.273Z,16.63
2017-09-17T02:21:40.981Z,16.57
2017-09-17T02:22:51.323Z,16.63
2017-09-17T02:24:01.047Z,16.59
2017-09-17T02:25:11.390Z,16.58
2017-09-17T02:26:21.730Z,16.63
2017-09-17T02:27:32.065Z,16.63
2017-09-17T02:28:42.416Z,16.63
2017-09-17T02:29:52.768Z,16.58
2017-09-17T02:31:02.785Z,16.63
2017-09-17T02:32:12.867Z,16.55
2017-09-17T02:33:23.204Z,16.59
2017-09-17T02:34:33.553Z,16.59
2017-09-17T02:35:43.899Z,16.59
2017-09-17T02:36:53.924Z,16.57
2017-09-17T02:38:03.692Z,16.59
2017-09-17T02:39:14.047Z,16.58
2017-09-17T02:40:23.769Z,16.45
2017-09-17T02:41:33.792Z,16.44
2017-09-17T02:42:44.140Z,16.51
2017-09-17T02:43:54.528Z,16.42
2017-09-17T02:45:04.875Z,16.4
2017-09-17T02:46:15.219Z,16.42
2017-09-17T02:47:25.560Z,16.45
2017-09-17T02:48:35.906Z,16.42
2017-09-17T02:49:45.946Z,16.36
2017-09-17T02:50:56.279Z,16.36
2017-09-17T02:52:09.111Z,16.3
2017-09-17T02:53:19.444Z,16.3
2017-09-17T02:54:29.781Z,16.27
2017-09-17T02:55:39.828Z,16.29
2017-09-17T02:56:50.168Z,16.29
2017-09-17T02:58:00.518Z,16.3
2017-09-17T02:59:10.547Z,16.22
2017-09-17T03:00:20.895Z,16.27
2017-09-17T03:01:30.906Z,16.3
2017-09-17T03:02:41.245Z,16.34
2017-09-17T03:33:53.150Z,13.99
2017-09-17T03:35:03.161Z,13.91
2017-09-17T03:36:16.255Z,13.88
2017-09-17T03:37:26.277Z,14.05
2017-09-17T03:38:36.629Z,14.09
2017-09-17T03:39:46.982Z,14.09
2017-09-17T03:40:57.319Z,14.24
2017-09-17T03:42:07.652Z,14.34
2017-09-17T03:43:17.992Z,14.45
2017-09-17T03:44:28.015Z,14.64
2017-09-17T03:45:38.363Z,14.69
2017-09-17T03:46:48.700Z,14.77
2017-09-17T03:47:59.035Z,14.89
2017-09-17T03:49:09.061Z,15.04
2017-09-17T03:50:19.091Z,15.27
2017-09-17T03:51:29.112Z,15.33
2017-09-17T03:52:38.842Z,15.51
2017-09-17T03:53:49.100Z,15.45
2017-09-17T03:54:59.116Z,15.58
2017-09-17T03:56:09.462Z,15.68
2017-09-17T03:57:19.529Z,15.73
2017-09-17T03:58:29.876Z,15.81
2017-09-17T03:59:40.214Z,15.93
2017-09-17T04:00:49.917Z,15.99
2017-09-17T04:01:59.932Z,15.96
2017-09-17T04:03:09.638Z,16.04
2017-09-17T04:04:19.666Z,16.04
2017-09-17T04:05:29.698Z,16.11
2017-09-17T04:06:40.035Z,16.11
2017-09-17T04:07:50.066Z,16.22
2017-09-17T04:09:00.415Z,16.21
2017-09-17T04:10:10.759Z,16.26
2017-09-17T04:11:20.780Z,16.37
2017-09-17T04:12:31.130Z,16.3
2017-09-17T04:13:41.186Z,16.34
2017-09-17T04:14:51.238Z,16.36
2017-09-17T04:16:01.558Z,16.32
2017-09-17T04:17:11.584Z,16.37
2017-09-17T04:18:21.911Z,16.42
2017-09-17T04:19:32.249Z,16.33
2017-09-17T04:20:42.584Z,16.44
2017-09-17T04:21:52.931Z,16.32
2017-09-17T04:23:03.276Z,16.37
2017-09-17T04:24:13.621Z,16.37
2017-09-17T04:25:23.634Z,16.45
2017-09-17T04:26:34.012Z,16.33
2017-09-17T04:27:44.585Z,16.4
2017-09-17T04:28:54.607Z,16.44
2017-09-17T04:30:04.955Z,16.45
2017-09-17T04:31:15.298Z,16.49
2017-09-17T04:32:25.654Z,16.47
2017-09-17T04:33:36.003Z,16.45
2017-09-17T04:34:46.352Z,16.44
2017-09-17T04:35:56.379Z,16.49
2017-09-17T04:37:06.401Z,16.47
2017-09-17T04:38:16.448Z,16.47
2017-09-17T04:39:26.475Z,16.4
2017-09-17T04:40:36.823Z,16.32
2017-09-17T04:41:47.175Z,16.26
2017-09-17T04:42:57.524Z,16.27
2017-09-17T04:44:07.555Z,16.3
2017-09-17T04:45:17.902Z,16.27
2017-09-17T04:46:28.236Z,16.32
2017-09-17T04:47:38.582Z,16.25
2017-09-17T04:48:48.609Z,16.17
2017-09-17T04:49:58.644Z,16.32
2017-09-17T04:51:08.985Z,16.34
2017-09-17T04:52:19.005Z,16.27
2017-09-17T04:53:28.700Z,16.25
2017-09-17T04:54:38.728Z,16.25
2017-09-17T04:55:48.437Z,16.25
2017-09-17T04:56:58.455Z,16.25
2017-09-17T04:58:08.162Z,16.29
2017-09-17T04:59:18.488Z,16.29
2017-09-17T05:00:28.515Z,16.21
2017-09-17T05:01:38.538Z,16.22
2017-09-17T05:02:48.569Z,16.21
2017-09-17T05:03:58.906Z,16.22
2017-09-17T05:05:09.238Z,16.22
2017-09-17T05:06:19.575Z,16.26
2017-09-17T05:07:29.293Z,16.3
2017-09-17T05:08:39.640Z,16.36
2017-09-17T05:09:49.976Z,16.37
2017-09-17T05:11:00.318Z,16.44
2017-09-17T05:12:10.677Z,16.4
2017-09-17T05:13:21.025Z,16.47
2017-09-17T05:14:31.074Z,16.36
2017-09-17T05:15:41.459Z,16.42
2017-09-17T05:16:51.807Z,16.45
2017-09-17T05:18:02.144Z,16.47
2017-09-17T05:19:12.487Z,16.47
2017-09-17T05:20:22.850Z,16.48
2017-09-17T05:21:33.209Z,16.44
2017-09-17T05:22:43.549Z,16.51
2017-09-17T05:23:53.887Z,16.52
2017-09-17T05:25:04.228Z,16.54
2017-09-17T05:26:14.625Z,16.69
2017-09-17T05:27:24.956Z,16.69
2017-09-17T05:28:34.982Z,16.7
2017-09-17T05:29:45.337Z,16.65
2017-09-17T05:30:55.683Z,16.63
2017-09-17T05:32:05.758Z,16.58
2017-09-17T05:33:16.101Z,16.58
2017-09-17T05:34:26.447Z,16.52
2017-09-17T05:35:36.793Z,16.55
2017-09-17T05:36:47.135Z,16.47
2017-09-17T05:37:57.201Z,16.48
2017-09-17T05:39:07.539Z,16.54
2017-09-17T05:40:17.558Z,16.4
2017-09-17T05:41:27.917Z,16.55
2017-09-17T05:42:38.280Z,16.51
2017-09-17T05:43:48.291Z,16.52
2017-09-17T05:44:58.648Z,16.54
2017-09-17T05:46:09.008Z,16.57
2017-09-17T05:47:19.372Z,16.58
2017-09-17T05:48:29.739Z,16.59
2017-09-17T05:49:40.138Z,16.45
2017-09-17T05:50:50.492Z,16.44
2017-09-17T05:52:00.522Z,16.55
2017-09-17T05:53:10.220Z,16.51
2017-09-17T05:54:20.586Z,16.59
2017-09-17T05:55:30.936Z,16.59
2017-09-17T05:56:41.278Z,16.57
2017-09-17T05:57:51.627Z,16.57
2017-09-17T05:59:01.978Z,16.55
2017-09-17T06:00:12.327Z,16.63
2017-09-17T06:01:22.672Z,16.57
2017-09-17T06:02:33.015Z,16.66
2017-09-17T06:03:43.060Z,16.67
2017-09-17T06:04:53.413Z,16.7
2017-09-17T06:06:03.778Z,16.76
2017-09-17T06:07:14.102Z,16.8
2017-09-17T06:08:24.445Z,16.82
2017-09-17T06:09:34.790Z,16.81
2017-09-17T06:10:45.132Z,16.91
2017-09-17T06:11:55.480Z,16.87
2017-09-17T06:13:06.499Z,16.88
2017-09-17T06:14:16.517Z,16.9
2017-09-17T06:15:26.925Z,16.95
2017-09-17T06:16:37.272Z,16.92
2017-09-17T06:17:47.336Z,16.91
2017-09-17T06:18:57.423Z,16.92
2017-09-17T06:20:07.780Z,16.87
2017-09-17T06:21:18.128Z,16.94
2017-09-17T06:22:28.482Z,16.9
2017-09-17T06:23:38.196Z,16.91
2017-09-17T06:24:48.553Z,16.81
2017-09-17T06:25:58.875Z,16.84
2017-09-17T06:27:09.210Z,16.76
2017-09-17T06:28:19.564Z,16.67
2017-09-17T06:29:28.963Z,16.55
2017-09-17T06:30:38.991Z,16.57
2017-09-17T06:31:49.349Z,16.62
2017-09-17T06:32:59.370Z,16.58
2017-09-17T06:34:09.956Z,16.58
2017-09-17T06:35:20.323Z,16.72
2017-09-17T06:36:30.665Z,16.87
2017-09-17T06:37:40.377Z,16.99
2017-09-17T06:38:50.428Z,17.17
2017-09-17T06:40:00.818Z,17.28
2017-09-17T06:41:11.161Z,17.28
2017-09-17T06:42:21.556Z,17.24
2017-09-17T06:43:31.923Z,17.21
2017-09-17T06:44:42.275Z,17.18
2017-09-17T06:45:52.000Z,17.06
2017-09-17T06:47:02.337Z,16.92
2017-09-17T06:48:14.754Z,16.81
2017-09-17T06:49:24.810Z,16.73
2017-09-17T06:50:35.161Z,16.54
2017-09-17T06:51:45.518Z,16.55
2017-09-17T06:52:55.225Z,16.44
2017-09-17T06:54:05.578Z,16.44
2017-09-17T06:55:15.942Z,16.42
2017-09-17T06:56:25.970Z,16.52
2017-09-17T06:57:37.725Z,16.47
2017-09-17T06:58:48.085Z,16.39
2017-09-17T06:59:58.115Z,16.36
2017-09-17T07:01:08.473Z,16.33
2017-09-17T07:02:18.833Z,16.3
2017-09-17T07:03:28.539Z,16.26
2017-09-17T07:04:38.560Z,16.25
2017-09-17T07:05:48.946Z,16.11
2017-09-17T07:06:58.983Z,16.14
2017-09-17T07:08:09.533Z,16.06
2017-09-17T07:09:19.568Z,16.02
2017-09-17T07:10:29.930Z,15.98
2017-09-17T07:11:40.302Z,15.93
2017-09-17T07:12:50.330Z,15.96
2017-09-17T07:14:00.747Z,15.84
2017-09-17T07:15:11.094Z,15.92
2017-09-17T07:16:21.441Z,15.84
2017-09-17T07:17:31.463Z,15.95
2017-09-17T07:18:41.552Z,15.84
2017-09-17T07:19:51.577Z,15.84
2017-09-17T07:21:01.942Z,15.93
2017-09-17T07:22:12.299Z,15.84
2017-09-17T07:23:22.650Z,15.81
2017-09-17T07:24:32.672Z,15.84
2017-09-17T07:25:43.016Z,15.75
2017-09-17T07:26:53.351Z,15.77
2017-09-17T07:28:03.704Z,15.67
2017-09-17T07:29:13.765Z,15.63
2017-09-17T07:30:23.805Z,15.65
2017-09-17T07:31:34.170Z,15.59
2017-09-17T07:32:44.739Z,15.63
2017-09-17T07:33:54.756Z,15.59
2017-09-17T07:35:05.123Z,15.62
2017-09-17T07:36:15.507Z,15.58
2017-09-17T07:37:25.848Z,15.51
2017-09-17T07:38:36.212Z,15.43
2017-09-17T07:39:46.577Z,15.43
2017-09-17T07:40:56.608Z,15.47
2017-09-17T07:42:06.651Z,15.47
2017-09-17T07:43:16.996Z,15.45
2017-09-17T07:44:27.039Z,15.34
2017-09-17T07:45:37.075Z,15.3
2017-09-17T07:46:47.470Z,15.27
2017-09-17T07:47:57.823Z,15.3
2017-09-17T07:49:08.185Z,15.3
2017-09-17T07:50:18.522Z,15.3
2017-09-17T07:51:28.863Z,15.33
2017-09-17T07:52:39.266Z,15.34
2017-09-17T07:53:49.308Z,15.33
2017-09-17T07:54:59.647Z,15.33
2017-09-17T07:56:09.984Z,15.38
2017-09-17T07:57:20.340Z,15.43
2017-09-17T07:58:30.670Z,15.45
2017-09-17T07:59:41.018Z,15.49
2017-09-17T08:00:51.368Z,15.34
2017-09-17T08:02:01.389Z,15.4
2017-09-17T08:03:11.729Z,15.34
2017-09-17T08:04:21.449Z,15.3
2017-09-17T08:05:31.483Z,15.4
2017-09-17T08:06:41.821Z,15.35
2017-09-17T08:07:52.178Z,15.44
2017-09-17T08:09:02.522Z,15.43
2017-09-17T08:10:12.602Z,15.56
2017-09-17T08:11:22.945Z,15.52
2017-09-17T08:12:33.000Z,15.45
2017-09-17T08:13:42.713Z,15.47
2017-09-17T08:14:53.072Z,15.58
2017-09-17T08:16:03.426Z,15.51
2017-09-17T08:17:13.462Z,15.49
2017-09-17T08:18:23.483Z,15.47
2017-09-17T08:19:33.832Z,15.47
2017-09-17T08:20:44.190Z,15.34
2017-09-17T08:21:54.529Z,15.31
2017-09-17T08:23:04.562Z,15.4
2017-09-17T08:24:14.918Z,15.4
2017-09-17T08:25:25.274Z,15.44
2017-09-17T08:26:37.180Z,15.47
2017-09-17T08:27:47.265Z,15.52
2017-09-17T08:28:57.287Z,15.41
2017-09-17T08:30:07.640Z,15.56
2017-09-17T08:31:17.675Z,15.59
2017-09-17T08:32:28.031Z,15.6
2017-09-17T08:33:38.058Z,15.58
2017-09-17T08:34:48.421Z,15.58
2017-09-17T08:35:58.781Z,15.52
2017-09-17T08:37:09.134Z,15.53
2017-09-17T08:38:19.513Z,15.44
2017-09-17T08:39:29.881Z,15.52
2017-09-17T08:40:39.928Z,15.47
2017-09-17T08:41:50.265Z,15.45
2017-09-17T08:43:00.305Z,15.49
2017-09-17T08:44:10.645Z,15.44
2017-09-17T08:45:21.016Z,15.34
2017-09-17T08:46:31.350Z,15.35
2017-09-17T08:47:41.690Z,15.33
2017-09-17T08:48:52.109Z,15.41
2017-09-17T08:50:02.150Z,15.44
2017-09-17T08:51:12.495Z,15.47
2017-09-17T08:52:22.552Z,15.41
2017-09-17T08:53:32.889Z,15.38
2017-09-17T08:54:43.229Z,15.4
2017-09-17T08:55:53.261Z,15.38
2017-09-17T08:57:03.293Z,15.37
2017-09-17T08:58:13.304Z,15.3
2017-09-17T08:59:23.334Z,15.27
2017-09-17T09:00:33.090Z,15.19
2017-09-17T09:01:43.123Z,15.18
2017-09-17T09:02:53.489Z,15.22
2017-09-17T09:04:03.527Z,15.22
2017-09-17T09:05:13.877Z,15.23
2017-09-17T09:06:24.233Z,15.27
2017-09-17T09:07:34.585Z,15.15
2017-09-17T09:08:44.591Z,15.3
2017-09-17T09:09:54.632Z,15.4
2017-09-17T09:11:04.961Z,15.4
2017-09-17T09:12:15.311Z,15.33
2017-09-17T09:13:25.347Z,15.41
2017-09-17T09:14:35.383Z,15.47
2017-09-17T09:15:45.728Z,15.35
2017-09-17T09:16:56.088Z,15.49
2017-09-17T09:18:06.487Z,15.44
2017-09-17T09:19:16.856Z,15.44
2017-09-17T09:20:26.573Z,15.37
2017-09-17T09:21:36.928Z,15.35
2017-09-17T09:22:47.298Z,15.4
2017-09-17T09:23:57.703Z,15.34
2017-09-17T09:25:10.714Z,15.4
2017-09-17T09:26:20.763Z,15.33
2017-09-17T09:27:31.123Z,15.33
2017-09-17T09:28:41.163Z,15.31
2017-09-17T09:29:51.262Z,15.44
2017-09-17T09:31:01.652Z,15.44
2017-09-17T09:32:12.034Z,15.47
2017-09-17T09:33:22.401Z,15.43
2017-09-17T09:34:32.785Z,15.38
2017-09-17T09:35:43.159Z,15.49
2017-09-17T09:36:53.205Z,15.45
2017-09-17T09:38:03.570Z,15.47
2017-09-17T09:39:13.926Z,15.44
2017-09-17T09:40:24.264Z,15.47
2017-09-17T09:41:34.631Z,15.55
2017-09-17T09:42:45.017Z,15.52
2017-09-17T09:43:54.735Z,15.56
2017-09-17T09:45:05.100Z,15.67
2017-09-17T09:46:15.473Z,15.75
2017-09-17T09:47:25.572Z,15.75
2017-09-17T09:48:35.912Z,15.68
2017-09-17T09:49:46.264Z,15.75
2017-09-17T09:50:56.663Z,15.65
2017-09-17T09:52:08.824Z,15.71
2017-09-17T09:53:19.243Z,15.65
2017-09-17T09:54:29.615Z,15.65
2017-09-17T09:55:39.652Z,15.58
2017-09-17T09:56:49.685Z,15.65
2017-09-17T09:58:02.624Z,15.62
2017-09-17T09:59:13.023Z,15.59
2017-09-17T10:00:23.365Z,15.55
2017-09-17T10:01:33.729Z,15.58
2017-09-17T10:02:44.089Z,15.53
2017-09-17T10:03:54.444Z,15.62
2017-09-17T10:05:04.811Z,15.44
2017-09-17T10:06:15.181Z,15.51
2017-09-17T10:07:25.553Z,15.55
2017-09-17T10:08:35.584Z,15.58
2017-09-17T10:09:45.957Z,15.59
2017-09-17T10:10:56.311Z,15.59
2017-09-17T10:12:06.636Z,15.56
2017-09-17T10:13:16.683Z,15.53
2017-09-17T10:14:27.070Z,15.51
2017-09-17T10:15:37.441Z,15.52
2017-09-17T10:16:47.850Z,15.47
2017-09-17T10:17:58.200Z,15.53
2017-09-17T10:19:08.578Z,15.45
2017-09-17T10:20:18.968Z,15.51
2017-09-17T10:21:29.040Z,15.56
2017-09-17T10:22:38.791Z,15.56
2017-09-17T10:23:49.160Z,15.58
2017-09-17T10:24:59.544Z,15.63
2017-09-17T10:26:09.926Z,15.68
2017-09-17T10:27:20.286Z,15.65
2017-09-17T10:28:30.647Z,15.65
2017-09-17T10:29:40.724Z,15.65
2017-09-17T10:30:51.094Z,15.63
2017-09-17T10:32:01.134Z,15.71
2017-09-17T10:33:11.497Z,15.7
2017-09-17T10:34:21.845Z,15.75
2017-09-17T10:35:31.567Z,15.8
2017-09-17T10:36:41.597Z,15.75
2017-09-17T10:37:51.955Z,15.83
2017-09-17T10:39:02.328Z,15.88
2017-09-17T10:40:12.377Z,15.78
2017-09-17T10:41:22.725Z,15.81
2017-09-17T10:42:32.751Z,15.83
2017-09-17T10:43:43.090Z,15.84
2017-09-17T10:44:53.462Z,15.89
2017-09-17T10:46:03.898Z,15.89
2017-09-17T10:47:15.190Z,15.92
2017-09-17T10:48:25.563Z,15.81
2017-09-17T10:49:35.613Z,15.88
2017-09-17T10:50:45.972Z,15.81
2017-09-17T10:51:56.058Z,15.89
2017-09-17T10:53:06.398Z,15.84
2017-09-17T10:54:16.747Z,15.96
2017-09-17T10:55:26.775Z,15.86
2017-09-17T10:56:36.814Z,15.91
2017-09-17T10:57:47.162Z,15.84
2017-09-17T10:58:57.543Z,15.92
2017-09-17T11:00:07.623Z,15.93
2017-09-17T11:01:17.987Z,15.99
2017-09-17T11:02:28.347Z,15.96
2017-09-17T11:03:38.751Z,15.88
2017-09-17T11:04:49.103Z,15.84
2017-09-17T11:05:59.461Z,15.81
2017-09-17T11:07:09.815Z,15.88
2017-09-17T11:08:20.204Z,15.81
2017-09-17T11:09:30.303Z,15.77
2017-09-17T11:10:40.672Z,15.81
2017-09-17T11:11:51.027Z,15.77
2017-09-17T11:13:01.091Z,15.83
2017-09-17T11:14:11.499Z,15.91
2017-09-17T11:15:23.528Z,15.96
2017-09-17T11:16:33.275Z,15.96
2017-09-17T11:17:43.634Z,16.13
2017-09-17T11:18:53.992Z,16.25
2017-09-17T11:20:04.367Z,16.26
2017-09-17T11:21:14.802Z,16.42
2017-09-17T11:22:24.836Z,16.44
2017-09-17T11:23:35.184Z,16.42
2017-09-17T11:24:45.546Z,16.45
2017-09-17T11:25:55.925Z,16.47
2017-09-17T11:27:05.994Z,16.54
2017-09-17T11:28:16.360Z,16.69
2017-09-17T11:29:26.696Z,16.74
2017-09-17T11:30:36.424Z,16.8
2017-09-17T11:31:46.448Z,16.85
2017-09-17T11:32:56.803Z,16.9
2017-09-17T11:34:06.839Z,16.92
2017-09-17T11:35:17.185Z,16.81
2017-09-17T11:36:27.534Z,16.67
2017-09-17T11:37:37.881Z,16.7
2017-09-17T11:38:48.000Z,16.7
2017-09-17T11:39:58.350Z,16.67
2017-09-17T11:41:08.365Z,16.65
2017-09-17T11:42:18.411Z,16.74
2017-09-17T11:43:29.523Z,16.69
2017-09-17T11:44:39.617Z,16.8
2017-09-17T11:45:49.968Z,16.92
2017-09-17T11:47:00.332Z,17
2017-09-17T11:48:10.696Z,17.02
2017-09-17T11:49:21.078Z,16.99
2017-09-17T11:50:30.836Z,16.92
2017-09-17T11:51:41.182Z,16.85
2017-09-17T11:52:51.237Z,16.67
2017-09-17T11:54:01.591Z,16.66
2017-09-17T11:55:11.618Z,16.57
2017-09-17T11:56:21.996Z,16.45
2017-09-17T11:57:32.363Z,16.36
2017-09-17T11:58:42.406Z,16.4
2017-09-17T11:59:52.813Z,16.4
2017-09-17T12:01:03.165Z,16.26
2017-09-17T12:02:13.535Z,16.16
2017-09-17T12:03:23.882Z,16.08
2017-09-17T12:04:34.277Z,15.99
2017-09-17T12:05:44.631Z,15.95
2017-09-17T12:06:54.669Z,15.93
2017-09-17T12:08:04.731Z,15.86
2017-09-17T12:09:15.094Z,15.73
2017-09-17T12:10:25.485Z,15.74
2017-09-17T12:11:36.520Z,15.74
2017-09-17T12:12:46.553Z,15.67
2017-09-17T12:13:56.959Z,15.62
2017-09-17T12:15:07.309Z,15.68
2017-09-17T12:16:17.689Z,15.68
2017-09-17T12:17:27.739Z,15.65
2017-09-17T12:18:38.094Z,15.62
2017-09-17T12:19:48.215Z,15.63
2017-09-17T12:20:58.581Z,15.6
2017-09-17T12:22:08.324Z,15.59
2017-09-17T12:23:18.695Z,15.47
2017-09-17T12:24:29.069Z,15.52
2017-09-17T12:25:39.491Z,15.47
2017-09-17T12:26:49.884Z,15.4
2017-09-17T12:27:59.931Z,15.44
2017-09-17T12:29:09.960Z,15.49
2017-09-17T12:30:20.317Z,15.33
2017-09-17T12:31:35.357Z,15.43
2017-09-17T12:32:47.009Z,15.3
2017-09-17T12:33:57.053Z,15.26
2017-09-17T12:35:07.416Z,15.3
2017-09-17T12:36:17.447Z,15.35
2017-09-17T12:37:27.800Z,15.19
2017-09-17T12:38:38.159Z,15.33
2017-09-17T12:39:48.531Z,15.3
2017-09-17T12:40:58.897Z,15.23
2017-09-17T12:42:09.268Z,15.3
2017-09-17T12:43:19.623Z,15.25
2017-09-17T12:44:29.989Z,15.19
2017-09-17T12:45:40.351Z,15.27
2017-09-17T12:46:50.744Z,15.18
2017-09-17T12:48:00.762Z,15.23
2017-09-17T12:49:10.845Z,15.22
2017-09-17T12:50:22.361Z,15.26
2017-09-17T12:51:32.718Z,15.23
2017-09-17T12:52:42.760Z,15.35
2017-09-17T12:53:53.150Z,15.3
2017-09-17T12:55:03.492Z,15.31
2017-09-17T12:56:13.538Z,15.3
2017-09-17T12:57:24.176Z,15.3
2017-09-17T12:58:34.763Z,15.27
2017-09-17T12:59:45.110Z,15.33
2017-09-17T13:00:57.640Z,15.31
2017-09-17T13:02:07.987Z,15.41
2017-09-17T13:03:17.742Z,15.51
2017-09-17T13:04:28.108Z,15.44
2017-09-17T13:05:38.138Z,15.56
2017-09-17T13:06:48.528Z,15.58
2017-09-17T13:07:58.869Z,15.67
2017-09-17T13:09:09.228Z,15.63
2017-09-17T13:10:19.593Z,15.7
2017-09-17T13:11:29.615Z,15.7
2017-09-17T13:12:39.649Z,15.75
2017-09-17T13:13:49.699Z,15.8
2017-09-17T13:15:00.082Z,15.84
2017-09-17T13:16:10.456Z,15.92
2017-09-17T13:17:20.824Z,15.88
2017-09-17T13:18:30.945Z,15.88
2017-09-17T13:19:41.003Z,15.84
2017-09-17T13:20:51.368Z,15.89
2017-09-17T13:22:01.720Z,15.92
2017-09-17T13:23:12.095Z,15.96
2017-09-17T13:24:22.494Z,16.02
2017-09-17T13:25:32.534Z,15.93
2017-09-17T13:26:42.586Z,15.93
2017-09-17T13:27:52.937Z,16.08
2017-09-17T13:29:03.266Z,16
2017-09-17T13:30:13.633Z,16.08
2017-09-17T13:31:25.228Z,15.96
2017-09-17T13:32:35.596Z,15.98
2017-09-17T13:33:45.951Z,15.86
2017-09-17T13:34:56.313Z,15.93
2017-09-17T13:36:06.412Z,15.93
2017-09-17T13:37:16.440Z,15.93
2017-09-17T13:38:26.804Z,15.93
2017-09-17T13:39:37.149Z,15.86
2017-09-17T13:40:47.187Z,15.88
2017-09-17T13:41:58.487Z,15.83
2017-09-17T13:43:08.841Z,15.83
2017-09-17T13:44:19.179Z,15.83
2017-09-17T13:45:29.538Z,15.83
2017-09-17T13:46:39.553Z,15.75
2017-09-17T13:47:49.966Z,15.84
2017-09-17T13:49:00.301Z,15.68
2017-09-17T13:50:12.043Z,15.67
2017-09-17T13:51:22.426Z,15.59
2017-09-17T13:52:32.783Z,15.6
2017-09-17T13:53:43.327Z,15.49
2017-09-17T13:54:53.694Z,15.51
2017-09-17T13:56:04.051Z,15.45
2017-09-17T13:57:14.429Z,15.45
2017-09-17T13:58:24.778Z,15.43
2017-09-17T13:59:34.839Z,15.4
2017-09-17T14:00:45.190Z,15.38
2017-09-17T14:01:55.217Z,15.35
2017-09-17T14:03:05.584Z,15.38
2017-09-17T14:04:15.981Z,15.37
2017-09-17T14:05:26.392Z,15.33
2017-09-17T14:06:36.754Z,15.37
2017-09-17T14:07:46.810Z,15.49
2017-09-17T14:08:57.176Z,15.45
2017-09-17T14:10:07.532Z,15.47
2017-09-17T14:11:17.894Z,15.49
2017-09-17T14:12:30.162Z,15.56
2017-09-17T14:13:40.532Z,15.6
2017-09-17T14:14:50.879Z,15.58
2017-09-17T14:16:00.940Z,15.55
2017-09-17T14:17:11.312Z,15.62
2017-09-17T14:18:21.686Z,15.63
2017-09-17T14:19:32.041Z,15.65
2017-09-17T14:20:42.081Z,15.6
2017-09-17T14:21:52.433Z,15.6
2017-09-17T14:23:02.460Z,15.68
2017-09-17T14:24:12.813Z,15.77
2017-09-17T14:25:22.837Z,15.77
2017-09-17T14:26:33.233Z,15.75
2017-09-17T14:27:43.592Z,15.75
2017-09-17T14:28:53.354Z,15.84
2017-09-17T14:30:03.077Z,15.84
2017-09-17T14:31:13.425Z,15.86
2017-09-17T14:32:23.776Z,15.83
2017-09-17T14:33:34.119Z,15.81
2017-09-17T14:34:44.544Z,15.83
2017-09-17T14:35:54.598Z,15.81
2017-09-17T14:37:04.959Z,15.81
2017-09-17T14:38:15.346Z,15.78
2017-09-17T14:39:25.730Z,15.81
2017-09-17T14:40:36.076Z,15.8
2017-09-17T14:41:45.778Z,15.88
2017-09-17T14:42:56.148Z,15.96
2017-09-17T14:44:06.201Z,15.99
2017-09-17T14:45:16.228Z,15.99
2017-09-17T14:46:26.334Z,16.02
2017-09-17T14:47:36.678Z,16.1
2017-09-17T14:48:46.717Z,16.1
2017-09-17T14:49:57.116Z,16.07
2017-09-17T14:51:07.465Z,16.21
2017-09-17T14:52:19.683Z,16.21
2017-09-17T14:53:30.046Z,16.29
2017-09-17T14:54:40.086Z,16.3
2017-09-17T14:55:50.468Z,16.27
2017-09-17T14:57:00.851Z,16.26
2017-09-17T14:58:15.447Z,16.27
2017-09-17T14:59:25.528Z,16.13
2017-09-17T15:00:35.251Z,16.27
2017-09-17T15:01:45.819Z,16.33
2017-09-17T15:02:56.191Z,16.33
2017-09-17T15:04:06.603Z,16.48
2017-09-17T15:05:16.979Z,16.34
2017-09-17T15:06:27.377Z,16.45
2017-09-17T15:07:37.730Z,16.4
2017-09-17T15:08:48.099Z,16.39
2017-09-17T15:09:57.804Z,16.47
2017-09-17T15:11:07.548Z,16.57
2017-09-17T15:12:17.607Z,16.59
2017-09-17T15:13:28.051Z,16.65
2017-09-17T15:14:38.418Z,16.73
2017-09-17T15:15:48.820Z,16.77
2017-09-17T15:16:58.846Z,16.88
2017-09-17T15:18:09.237Z,16.95
2017-09-17T15:19:19.583Z,17.07
2017-09-17T15:20:29.962Z,17.13
2017-09-17T15:21:40.402Z,17.15
2017-09-17T15:22:50.768Z,17.18
2017-09-17T15:24:01.129Z,17.2
2017-09-17T15:25:11.188Z,17.3
2017-09-17T15:26:21.593Z,17.24
2017-09-17T15:27:33.360Z,17.25
2017-09-17T15:28:43.930Z,17.18
2017-09-17T15:29:54.286Z,17.25
2017-09-17T15:31:04.646Z,17.38
2017-09-17T15:32:14.993Z,17.28
2017-09-17T15:33:25.354Z,17.36
2017-09-17T15:34:35.447Z,17.45
2017-09-17T15:35:45.816Z,17.43
2017-09-17T15:36:56.183Z,17.57
2017-09-17T15:38:06.218Z,17.52
2017-09-17T15:39:16.616Z,17.65